Campanya meteocatpedra

Dades de l'estació automàtica la Quar

?
?
Resum diari 21:30 TU
Dades diàries de l'estació meteorològica
Temperatura mitjana 19.9 °C
Temperatura màxima 27.4 °C 14:59 TU
Temperatura mínima 14.0 °C 4:34 TU
Humitat relativa mitjana 68%
Precipitació acumulada 0.0 mm
Ratxa màxima del vent (10 m) 21.6 km/h - 215º 9:28 TU
Pressió atmosfèrica mitjana 1015.8 hPa

El tram horari està expressat en Temps Universal (TU). Cal sumar una hora en horari d'hivern i dues en horari d'estiu per passar a l'hora oficial.

la Quar

Metadades estació meteorol´gica
Municipi La Quar
Comarca Berguedà
Altitud 873 m
Data alta 13.03.1996
Estat actual Operativa
Dades de període
Període
TU
TM
°C
TX
°C
TN
°C
HRM
%
PPT
mm
VVM (10 m)
km/h
DVM (10 m)
graus
VVX (10 m)
km/h
PM
hPa
00:00 - 00:30 15.0 15.2 14.9 90 0.0 3.2 5 5.8 1019.3
00:30 - 01:00 15.0 15.1 14.8 90 0.0 3.2 5 5.4 1019.3
01:00 - 01:30 14.8 15.0 14.6 89 0.0 3.6 5 6.1 1019.1
01:30 - 02:00 14.9 15.2 14.7 80 0.0 3.6 6 6.8 1018.9
02:00 - 02:30 15.1 15.4 15.0 80 0.0 2.9 352 6.8 1018.5
02:30 - 03:00 15.5 15.6 15.3 82 0.0 1.1 28 6.5 1018.1
03:00 - 03:30 15.2 15.4 15.0 79 0.0 1.1 289 3.6 1018.1
03:30 - 04:00 14.6 15.2 14.4 79 0.0 1.8 280 4.3 1018.3
04:00 - 04:30 14.6 15.0 14.2 81 0.0 2.2 306 4.7 1018.4
04:30 - 05:00 14.3 14.5 14.0 83 0.0 4.7 272 6.8 1018.4
05:00 - 05:30 15.4 15.8 14.4 77 0.0 5.0 285 8.3 1018.1
05:30 - 06:00 16.5 17.3 15.8 74 0.0 2.2 256 7.2 1017.7
06:00 - 06:30 17.7 18.1 17.4 71 0.0 1.4 207 4.3 1017.5
06:30 - 07:00 18.7 19.7 17.5 70 0.0 1.8 214 5.0 1017.1
07:00 - 07:30 19.5 19.9 19.2 68 0.0 5.4 226 12.6 1016.7
07:30 - 08:00 20.3 20.7 19.6 68 0.0 4.7 196 11.2 1016.4
08:00 - 08:30 20.8 21.2 20.1 69 0.0 6.1 206 16.6 1016.1
08:30 - 09:00 21.3 21.6 21.0 66 0.0 6.5 195 15.5 1015.7
09:00 - 09:30 22.0 22.6 21.4 60 0.0 8.6 208 21.6 1015.5
09:30 - 10:00 23.1 24.0 22.4 55 0.0 6.1 204 18.4 1015.2
10:00 - 10:30 22.9 23.9 22.3 56 0.0 7.9 210 19.1 1015.1
10:30 - 11:00 23.5 24.2 22.4 54 0.0 5.8 209 19.8 1014.8
11:00 - 11:30 23.3 24.3 22.3 54 0.0 5.4 201 17.6 1014.8
11:30 - 12:00 24.4 25.0 23.6 50 0.0 7.9 222 20.2 1014.3
12:00 - 12:30 24.8 25.4 24.3 50 0.0 6.5 206 17.6 1013.9
12:30 - 13:00 25.1 25.7 24.3 49 0.0 6.1 213 16.2 1013.6
13:00 - 13:30 26.2 26.6 25.5 47 0.0 4.3 189 19.1 1013.0
13:30 - 14:00 26.4 27.0 25.7 46 0.0 6.8 224 18.0 1012.6
14:00 - 14:30 26.7 27.1 26.4 46 0.0 5.8 206 16.6 1012.3
14:30 - 15:00 27.0 27.4 26.6 47 0.0 5.4 201 18.0 1012.0
15:00 - 15:30 26.4 27.4 25.7 49 0.0 6.5 219 18.4 1011.9
15:30 - 16:00 24.9 25.5 24.5 53 0.0 5.0 202 14.8 1012.4
16:00 - 16:30 24.0 25.5 23.1 59 0.0 5.4 191 18.7 1012.7
16:30 - 17:00 22.2 23.0 21.4 63 0.0 7.9 216 19.1 1013.4
17:00 - 17:30 21.3 21.5 20.9 65 0.0 4.0 209 11.9 1014.0
17:30 - 18:00 20.7 20.8 20.6 67 0.0 3.6 217 11.5 1014.3
18:00 - 18:30 20.5 20.8 20.1 67 0.0 3.2 238 8.6 1014.5
18:30 - 19:00 19.4 20.1 18.9 72 0.0 1.1 247 5.8 1015.0
19:00 - 19:30 18.4 19.1 17.7 75 0.0 1.4 349 5.0 1015.3
19:30 - 20:00 17.3 17.6 16.7 77 0.0 1.8 348 7.6 1016.0
20:00 - 20:30 16.4 16.7 16.1 80 0.0 3.2 10 7.2 1016.7
20:30 - 21:00 16.2 16.4 15.9 80 0.0 1.4 339 6.1 1017.0
21:00 - 21:30 16.3 16.6 15.9 78 0.0 2.5 1 6.8 1017.0
21:30 - 22:00 16.2 16.5 15.9 79 0.0 1.8 344 5.8 1017.1

Les dades en taronja només han passat un control de qualitat automàtic. Resta pendent la seva validació definitiva.